sensor_id;sensor_type;location;lat;lon;timestamp;P1;durP1;ratioP1;P2;durP2;ratioP2
3081;SDS011;1551;51.046;7.010;2023-08-30T00:01:58;9.75;;;3.80;;
3081;SDS011;1551;51.046;7.010;2023-08-30T00:04:48;6.95;;;3.85;;
3081;SDS011;1551;51.046;7.010;2023-08-30T00:07:36;6.30;;;3.90;;
3081;SDS011;1551;51.046;7.010;2023-08-30T00:10:25;6.60;;;3.80;;
3081;SDS011;1551;51.046;7.010;2023-08-30T00:13:14;5.30;;;3.90;;
3081;SDS011;1551;51.046;7.010;2023-08-30T00:16:03;8.40;;;4.03;;
3081;SDS011;1551;51.046;7.010;2023-08-30T00:18:52;4.97;;;3.47;;
3081;SDS011;1551;51.046;7.010;2023-08-30T00:21:41;4.63;;;3.80;;
3081;SDS011;1551;51.046;7.010;2023-08-30T00:24:31;5.25;;;4.00;;
3081;SDS011;1551;51.046;7.010;2023-08-30T00:27:20;4.72;;;4.22;;
3081;SDS011;1551;51.046;7.010;2023-08-30T00:30:09;5.50;;;4.25;;
3081;SDS011;1551;51.046;7.010;2023-08-30T00:32:59;4.88;;;4.20;;
3081;SDS011;1551;51.046;7.010;2023-08-30T00:35:55;6.57;;;3.88;;
3081;SDS011;1551;51.046;7.010;2023-08-30T00:38:45;5.50;;;4.20;;
3081;SDS011;1551;51.046;7.010;2023-08-30T00:41:35;4.47;;;3.78;;
3081;SDS011;1551;51.046;7.010;2023-08-30T00:44:24;5.20;;;3.60;;
3081;SDS011;1551;51.046;7.010;2023-08-30T00:47:15;5.07;;;4.30;;
3081;SDS011;1551;51.046;7.010;2023-08-30T00:50:07;4.43;;;4.00;;
3081;SDS011;1551;51.046;7.010;2023-08-30T00:52:58;5.70;;;4.40;;
3081;SDS011;1551;51.046;7.010;2023-08-30T00:55:47;5.80;;;3.97;;
3081;SDS011;1551;51.046;7.010;2023-08-30T00:58:36;4.80;;;4.22;;
3081;SDS011;1551;51.046;7.010;2023-08-30T01:01:26;5.07;;;4.57;;
3081;SDS011;1551;51.046;7.010;2023-08-30T01:04:15;4.93;;;4.10;;
3081;SDS011;1551;51.046;7.010;2023-08-30T01:07:04;5.88;;;4.40;;
3081;SDS011;1551;51.046;7.010;2023-08-30T01:09:53;5.00;;;3.90;;
3081;SDS011;1551;51.046;7.010;2023-08-30T01:12:44;4.50;;;3.72;;
3081;SDS011;1551;51.046;7.010;2023-08-30T01:15:36;6.30;;;4.27;;
3081;SDS011;1551;51.046;7.010;2023-08-30T01:18:29;5.72;;;4.65;;
3081;SDS011;1551;51.046;7.010;2023-08-30T01:24:23;7.15;;;4.47;;
3081;SDS011;1551;51.046;7.010;2023-08-30T01:27:17;5.23;;;4.60;;
3081;SDS011;1551;51.046;7.010;2023-08-30T01:30:09;7.03;;;5.10;;
3081;SDS011;1551;51.046;7.010;2023-08-30T01:33:00;6.18;;;4.97;;
3081;SDS011;1551;51.046;7.010;2023-08-30T01:35:51;5.90;;;5.30;;
3081;SDS011;1551;51.046;7.010;2023-08-30T01:38:41;6.88;;;5.30;;
3081;SDS011;1551;51.046;7.010;2023-08-30T01:41:32;5.40;;;4.75;;
3081;SDS011;1551;51.046;7.010;2023-08-30T01:44:27;6.10;;;4.97;;
3081;SDS011;1551;51.046;7.010;2023-08-30T01:47:17;7.05;;;4.72;;
3081;SDS011;1551;51.046;7.010;2023-08-30T01:50:08;6.68;;;5.00;;
3081;SDS011;1551;51.046;7.010;2023-08-30T01:52:57;7.25;;;5.90;;
3081;SDS011;1551;51.046;7.010;2023-08-30T01:55:48;7.40;;;6.60;;
3081;SDS011;1551;51.046;7.010;2023-08-30T01:58:37;8.03;;;5.80;;
3081;SDS011;1551;51.046;7.010;2023-08-30T02:01:26;6.75;;;5.70;;
3081;SDS011;1551;51.046;7.010;2023-08-30T02:04:15;7.35;;;6.05;;
3081;SDS011;1551;51.046;7.010;2023-08-30T02:07:04;6.20;;;5.60;;
3081;SDS011;1551;51.046;7.010;2023-08-30T02:10:06;6.25;;;5.65;;
3081;SDS011;1551;51.046;7.010;2023-08-30T02:12:58;7.07;;;5.30;;
3081;SDS011;1551;51.046;7.010;2023-08-30T02:15:48;6.10;;;5.50;;
3081;SDS011;1551;51.046;7.010;2023-08-30T02:18:39;5.80;;;4.60;;
3081;SDS011;1551;51.046;7.010;2023-08-30T02:21:28;7.10;;;6.20;;
3081;SDS011;1551;51.046;7.010;2023-08-30T02:24:17;6.72;;;5.45;;
3081;SDS011;1551;51.046;7.010;2023-08-30T02:27:06;6.03;;;5.20;;
3081;SDS011;1551;51.046;7.010;2023-08-30T02:29:55;6.53;;;5.80;;
3081;SDS011;1551;51.046;7.010;2023-08-30T02:32:46;9.00;;;5.67;;
3081;SDS011;1551;51.046;7.010;2023-08-30T02:35:38;7.00;;;5.50;;
3081;SDS011;1551;51.046;7.010;2023-08-30T02:38:27;7.95;;;6.20;;
3081;SDS011;1551;51.046;7.010;2023-08-30T02:41:16;6.70;;;6.00;;
3081;SDS011;1551;51.046;7.010;2023-08-30T02:44:07;7.22;;;6.35;;
3081;SDS011;1551;51.046;7.010;2023-08-30T02:46:57;7.40;;;5.95;;
3081;SDS011;1551;51.046;7.010;2023-08-30T02:49:46;7.28;;;5.70;;
3081;SDS011;1551;51.046;7.010;2023-08-30T02:52:35;7.00;;;5.50;;
3081;SDS011;1551;51.046;7.010;2023-08-30T02:55:24;7.13;;;5.75;;
3081;SDS011;1551;51.046;7.010;2023-08-30T02:58:13;6.47;;;5.87;;
3081;SDS011;1551;51.046;7.010;2023-08-30T03:01:02;8.65;;;6.20;;
3081;SDS011;1551;51.046;7.010;2023-08-30T03:03:52;6.50;;;5.80;;
3081;SDS011;1551;51.046;7.010;2023-08-30T03:06:42;7.40;;;6.17;;
3081;SDS011;1551;51.046;7.010;2023-08-30T03:09:30;7.10;;;5.90;;
3081;SDS011;1551;51.046;7.010;2023-08-30T03:12:20;7.20;;;5.93;;
3081;SDS011;1551;51.046;7.010;2023-08-30T03:15:09;7.37;;;6.40;;
3081;SDS011;1551;51.046;7.010;2023-08-30T03:17:59;8.43;;;6.70;;
3081;SDS011;1551;51.046;7.010;2023-08-30T03:20:48;9.15;;;6.78;;
3081;SDS011;1551;51.046;7.010;2023-08-30T03:23:37;7.30;;;6.60;;
3081;SDS011;1551;51.046;7.010;2023-08-30T03:26:27;8.27;;;6.93;;
3081;SDS011;1551;51.046;7.010;2023-08-30T03:33:34;8.68;;;7.38;;
3081;SDS011;1551;51.046;7.010;2023-08-30T03:36:24;8.57;;;6.60;;
3081;SDS011;1551;51.046;7.010;2023-08-30T03:39:13;8.70;;;7.05;;
3081;SDS011;1551;51.046;7.010;2023-08-30T03:42:02;10.55;;;7.97;;
3081;SDS011;1551;51.046;7.010;2023-08-30T03:44:51;9.35;;;8.10;;
3081;SDS011;1551;51.046;7.010;2023-08-30T03:47:40;9.95;;;8.02;;
3081;SDS011;1551;51.046;7.010;2023-08-30T03:50:29;8.13;;;7.32;;
3081;SDS011;1551;51.046;7.010;2023-08-30T03:53:18;10.90;;;9.07;;
3081;SDS011;1551;51.046;7.010;2023-08-30T03:56:07;9.32;;;8.15;;
3081;SDS011;1551;51.046;7.010;2023-08-30T03:58:56;10.20;;;8.40;;
3081;SDS011;1551;51.046;7.010;2023-08-30T04:01:45;10.18;;;8.38;;
3081;SDS011;1551;51.046;7.010;2023-08-30T04:04:34;12.55;;;8.52;;
3081;SDS011;1551;51.046;7.010;2023-08-30T04:07:23;9.98;;;8.18;;
3081;SDS011;1551;51.046;7.010;2023-08-30T04:10:12;8.98;;;8.10;;
3081;SDS011;1551;51.046;7.010;2023-08-30T04:13:03;10.20;;;8.30;;
3081;SDS011;1551;51.046;7.010;2023-08-30T04:15:54;9.38;;;8.23;;
3081;SDS011;1551;51.046;7.010;2023-08-30T04:18:45;9.50;;;8.38;;
3081;SDS011;1551;51.046;7.010;2023-08-30T04:21:34;9.50;;;8.27;;
3081;SDS011;1551;51.046;7.010;2023-08-30T04:24:23;11.55;;;8.40;;
3081;SDS011;1551;51.046;7.010;2023-08-30T04:27:12;11.40;;;8.87;;
3081;SDS011;1551;51.046;7.010;2023-08-30T04:30:01;9.90;;;8.45;;
3081;SDS011;1551;51.046;7.010;2023-08-30T04:32:51;10.50;;;8.20;;
3081;SDS011;1551;51.046;7.010;2023-08-30T04:35:40;10.35;;;8.70;;
3081;SDS011;1551;51.046;7.010;2023-08-30T04:38:29;12.00;;;9.43;;
3081;SDS011;1551;51.046;7.010;2023-08-30T04:41:20;9.85;;;8.85;;
3081;SDS011;1551;51.046;7.010;2023-08-30T04:44:09;10.57;;;9.45;;
3081;SDS011;1551;51.046;7.010;2023-08-30T04:46:58;10.55;;;9.45;;
3081;SDS011;1551;51.046;7.010;2023-08-30T04:49:50;10.55;;;8.65;;
3081;SDS011;1551;51.046;7.010;2023-08-30T04:52:40;13.93;;;10.00;;
3081;SDS011;1551;51.046;7.010;2023-08-30T04:55:32;12.95;;;10.10;;
3081;SDS011;1551;51.046;7.010;2023-08-30T04:58:21;11.60;;;10.40;;
3081;SDS011;1551;51.046;7.010;2023-08-30T05:01:11;10.60;;;9.38;;
3081;SDS011;1551;51.046;7.010;2023-08-30T05:04:03;13.15;;;10.38;;
3081;SDS011;1551;51.046;7.010;2023-08-30T05:06:54;12.68;;;10.68;;
3081;SDS011;1551;51.046;7.010;2023-08-30T05:09:43;11.43;;;10.23;;
3081;SDS011;1551;51.046;7.010;2023-08-30T05:12:35;14.60;;;9.77;;
3081;SDS011;1551;51.046;7.010;2023-08-30T05:15:25;11.63;;;10.43;;
3081;SDS011;1551;51.046;7.010;2023-08-30T05:18:14;12.90;;;9.63;;
3081;SDS011;1551;51.046;7.010;2023-08-30T05:21:03;12.93;;;10.93;;
3081;SDS011;1551;51.046;7.010;2023-08-30T05:23:53;11.45;;;10.25;;
3081;SDS011;1551;51.046;7.010;2023-08-30T05:26:42;11.35;;;10.15;;
3081;SDS011;1551;51.046;7.010;2023-08-30T05:29:31;14.68;;;10.23;;
3081;SDS011;1551;51.046;7.010;2023-08-30T05:32:21;11.77;;;10.57;;
3081;SDS011;1551;51.046;7.010;2023-08-30T05:35:42;11.82;;;10.02;;
3081;SDS011;1551;51.046;7.010;2023-08-30T05:38:42;13.40;;;10.63;;
3081;SDS011;1551;51.046;7.010;2023-08-30T05:41:45;12.38;;;10.13;;
3081;SDS011;1551;51.046;7.010;2023-08-30T05:44:34;12.95;;;10.50;;
3081;SDS011;1551;51.046;7.010;2023-08-30T05:47:23;11.07;;;9.82;;
3081;SDS011;1551;51.046;7.010;2023-08-30T05:50:13;14.85;;;9.73;;
3081;SDS011;1551;51.046;7.010;2023-08-30T05:53:02;10.85;;;9.45;;
3081;SDS011;1551;51.046;7.010;2023-08-30T05:55:52;11.68;;;9.23;;
3081;SDS011;1551;51.046;7.010;2023-08-30T05:58:41;12.23;;;9.32;;
3081;SDS011;1551;51.046;7.010;2023-08-30T06:01:30;12.30;;;10.57;;
3081;SDS011;1551;51.046;7.010;2023-08-30T06:04:19;14.00;;;10.53;;
3081;SDS011;1551;51.046;7.010;2023-08-30T06:07:08;11.43;;;9.60;;
3081;SDS011;1551;51.046;7.010;2023-08-30T06:09:57;10.68;;;9.40;;
3081;SDS011;1551;51.046;7.010;2023-08-30T06:12:46;11.50;;;9.57;;
3081;SDS011;1551;51.046;7.010;2023-08-30T06:15:35;11.82;;;9.63;;
3081;SDS011;1551;51.046;7.010;2023-08-30T06:18:29;10.90;;;9.70;;
3081;SDS011;1551;51.046;7.010;2023-08-30T06:21:19;13.27;;;9.73;;
3081;SDS011;1551;51.046;7.010;2023-08-30T06:24:07;12.70;;;9.40;;
3081;SDS011;1551;51.046;7.010;2023-08-30T06:26:57;9.98;;;8.98;;
3081;SDS011;1551;51.046;7.010;2023-08-30T06:29:46;9.93;;;8.82;;
3081;SDS011;1551;51.046;7.010;2023-08-30T06:32:35;10.10;;;8.90;;
3081;SDS011;1551;51.046;7.010;2023-08-30T06:35:24;10.68;;;9.02;;
3081;SDS011;1551;51.046;7.010;2023-08-30T06:38:12;9.38;;;8.20;;
3081;SDS011;1551;51.046;7.010;2023-08-30T06:41:02;9.40;;;8.20;;
3081;SDS011;1551;51.046;7.010;2023-08-30T06:43:51;9.60;;;8.63;;
3081;SDS011;1551;51.046;7.010;2023-08-30T06:46:39;9.73;;;7.75;;
3081;SDS011;1551;51.046;7.010;2023-08-30T06:49:28;10.20;;;8.27;;
3081;SDS011;1551;51.046;7.010;2023-08-30T06:52:20;8.90;;;7.70;;
3081;SDS011;1551;51.046;7.010;2023-08-30T06:55:09;9.32;;;7.85;;
3081;SDS011;1551;51.046;7.010;2023-08-30T06:57:58;9.70;;;7.72;;
3081;SDS011;1551;51.046;7.010;2023-08-30T07:00:47;9.07;;;7.68;;
3081;SDS011;1551;51.046;7.010;2023-08-30T07:03:36;7.33;;;6.53;;
3081;SDS011;1551;51.046;7.010;2023-08-30T07:06:25;9.83;;;7.30;;
3081;SDS011;1551;51.046;7.010;2023-08-30T07:09:18;9.00;;;6.80;;
3081;SDS011;1551;51.046;7.010;2023-08-30T07:12:07;6.95;;;6.20;;
3081;SDS011;1551;51.046;7.010;2023-08-30T07:14:56;8.45;;;6.40;;
3081;SDS011;1551;51.046;7.010;2023-08-30T07:17:45;8.00;;;6.47;;
3081;SDS011;1551;51.046;7.010;2023-08-30T07:20:34;7.30;;;6.03;;
3081;SDS011;1551;51.046;7.010;2023-08-30T07:23:26;8.27;;;6.30;;
3081;SDS011;1551;51.046;7.010;2023-08-30T07:26:15;7.70;;;5.70;;
3081;SDS011;1551;51.046;7.010;2023-08-30T07:29:04;7.70;;;6.03;;
3081;SDS011;1551;51.046;7.010;2023-08-30T07:31:56;10.30;;;5.90;;
3081;SDS011;1551;51.046;7.010;2023-08-30T07:34:45;7.33;;;6.03;;
3081;SDS011;1551;51.046;7.010;2023-08-30T07:37:34;6.30;;;5.60;;
3081;SDS011;1551;51.046;7.010;2023-08-30T07:40:23;5.75;;;5.00;;
3081;SDS011;1551;51.046;7.010;2023-08-30T07:43:14;7.10;;;5.30;;
3081;SDS011;1551;51.046;7.010;2023-08-30T07:46:03;8.00;;;5.60;;
3081;SDS011;1551;51.046;7.010;2023-08-30T07:48:52;7.05;;;5.72;;
3081;SDS011;1551;51.046;7.010;2023-08-30T07:51:41;7.78;;;5.45;;
3081;SDS011;1551;51.046;7.010;2023-08-30T07:54:30;5.80;;;5.13;;
3081;SDS011;1551;51.046;7.010;2023-08-30T07:57:19;7.00;;;5.07;;
3081;SDS011;1551;51.046;7.010;2023-08-30T08:00:08;6.50;;;5.80;;
3081;SDS011;1551;51.046;7.010;2023-08-30T08:03:00;6.55;;;5.20;;
3081;SDS011;1551;51.046;7.010;2023-08-30T08:05:50;8.70;;;5.50;;
3081;SDS011;1551;51.046;7.010;2023-08-30T08:08:38;8.10;;;5.10;;
3081;SDS011;1551;51.046;7.010;2023-08-30T08:11:27;5.78;;;4.85;;
3081;SDS011;1551;51.046;7.010;2023-08-30T08:14:16;7.35;;;5.57;;
3081;SDS011;1551;51.046;7.010;2023-08-30T08:17:06;6.95;;;4.32;;
3081;SDS011;1551;51.046;7.010;2023-08-30T08:19:55;6.28;;;4.80;;
3081;SDS011;1551;51.046;7.010;2023-08-30T08:22:44;6.40;;;4.82;;
3081;SDS011;1551;51.046;7.010;2023-08-30T08:25:33;6.28;;;4.60;;
3081;SDS011;1551;51.046;7.010;2023-08-30T08:28:22;6.10;;;4.10;;
3081;SDS011;1551;51.046;7.010;2023-08-30T08:31:11;4.80;;;4.00;;
3081;SDS011;1551;51.046;7.010;2023-08-30T08:34:07;6.83;;;4.20;;
3081;SDS011;1551;51.046;7.010;2023-08-30T08:36:58;6.20;;;4.15;;
3081;SDS011;1551;51.046;7.010;2023-08-30T08:39:47;5.75;;;4.30;;
3081;SDS011;1551;51.046;7.010;2023-08-30T08:42:39;5.18;;;3.83;;
3081;SDS011;1551;51.046;7.010;2023-08-30T08:45:28;5.43;;;3.40;;
3081;SDS011;1551;51.046;7.010;2023-08-30T08:48:17;5.50;;;3.75;;
3081;SDS011;1551;51.046;7.010;2023-08-30T08:51:07;7.05;;;4.30;;
3081;SDS011;1551;51.046;7.010;2023-08-30T08:53:58;5.03;;;3.50;;
3081;SDS011;1551;51.046;7.010;2023-08-30T08:56:52;7.20;;;3.40;;
3081;SDS011;1551;51.046;7.010;2023-08-30T08:59:41;5.50;;;4.22;;
3081;SDS011;1551;51.046;7.010;2023-08-30T09:02:30;7.18;;;3.47;;
3081;SDS011;1551;51.046;7.010;2023-08-30T09:05:19;5.07;;;3.50;;
3081;SDS011;1551;51.046;7.010;2023-08-30T09:08:09;5.07;;;3.15;;
3081;SDS011;1551;51.046;7.010;2023-08-30T09:10:58;6.03;;;3.38;;
3081;SDS011;1551;51.046;7.010;2023-08-30T09:13:47;4.50;;;3.50;;
3081;SDS011;1551;51.046;7.010;2023-08-30T09:16:36;4.95;;;3.20;;
3081;SDS011;1551;51.046;7.010;2023-08-30T09:19:25;5.73;;;3.10;;
3081;SDS011;1551;51.046;7.010;2023-08-30T09:22:14;5.80;;;3.10;;
3081;SDS011;1551;51.046;7.010;2023-08-30T09:25:03;4.50;;;2.90;;
3081;SDS011;1551;51.046;7.010;2023-08-30T09:27:59;5.40;;;2.35;;
3081;SDS011;1551;51.046;7.010;2023-08-30T09:30:51;4.80;;;2.60;;
3081;SDS011;1551;51.046;7.010;2023-08-30T09:33:41;6.35;;;2.78;;
3081;SDS011;1551;51.046;7.010;2023-08-30T09:36:33;3.88;;;2.47;;
3081;SDS011;1551;51.046;7.010;2023-08-30T09:39:26;5.78;;;2.45;;
3081;SDS011;1551;51.046;7.010;2023-08-30T09:42:18;4.40;;;2.35;;
3081;SDS011;1551;51.046;7.010;2023-08-30T09:45:17;4.60;;;2.60;;
3081;SDS011;1551;51.046;7.010;2023-08-30T09:48:14;4.07;;;2.50;;
3081;SDS011;1551;51.046;7.010;2023-08-30T09:51:03;4.03;;;2.13;;
3081;SDS011;1551;51.046;7.010;2023-08-30T09:53:57;4.00;;;2.30;;
3081;SDS011;1551;51.046;7.010;2023-08-30T09:56:51;4.50;;;2.40;;
3081;SDS011;1551;51.046;7.010;2023-08-30T09:59:41;5.63;;;2.53;;
3081;SDS011;1551;51.046;7.010;2023-08-30T10:02:31;4.45;;;2.17;;
3081;SDS011;1551;51.046;7.010;2023-08-30T10:05:22;4.03;;;2.45;;
3081;SDS011;1551;51.046;7.010;2023-08-30T10:08:13;5.10;;;2.67;;
3081;SDS011;1551;51.046;7.010;2023-08-30T10:11:02;4.72;;;2.75;;
3081;SDS011;1551;51.046;7.010;2023-08-30T10:13:53;4.60;;;2.75;;
3081;SDS011;1551;51.046;7.010;2023-08-30T10:16:44;4.68;;;2.30;;
3081;SDS011;1551;51.046;7.010;2023-08-30T10:19:34;4.60;;;2.50;;
3081;SDS011;1551;51.046;7.010;2023-08-30T10:22:25;4.97;;;2.50;;
3081;SDS011;1551;51.046;7.010;2023-08-30T10:25:17;4.97;;;2.80;;
3081;SDS011;1551;51.046;7.010;2023-08-30T10:28:09;6.18;;;2.80;;
3081;SDS011;1551;51.046;7.010;2023-08-30T10:31:00;3.83;;;2.50;;
3081;SDS011;1551;51.046;7.010;2023-08-30T10:33:49;3.90;;;2.50;;
3081;SDS011;1551;51.046;7.010;2023-08-30T10:36:39;5.38;;;2.47;;
3081;SDS011;1551;51.046;7.010;2023-08-30T10:42:27;6.55;;;2.58;;
3081;SDS011;1551;51.046;7.010;2023-08-30T10:45:22;5.40;;;2.72;;
3081;SDS011;1551;51.046;7.010;2023-08-30T10:48:12;5.53;;;3.00;;
3081;SDS011;1551;51.046;7.010;2023-08-30T10:51:01;4.20;;;2.27;;
3081;SDS011;1551;51.046;7.010;2023-08-30T10:53:57;6.00;;;2.90;;
3081;SDS011;1551;51.046;7.010;2023-08-30T10:56:57;3.40;;;2.40;;
3081;SDS011;1551;51.046;7.010;2023-08-30T11:02:58;4.20;;;2.85;;
3081;SDS011;1551;51.046;7.010;2023-08-30T11:05:47;6.70;;;2.80;;
3081;SDS011;1551;51.046;7.010;2023-08-30T11:08:38;5.10;;;2.60;;
3081;SDS011;1551;51.046;7.010;2023-08-30T11:11:27;4.50;;;2.60;;
3081;SDS011;1551;51.046;7.010;2023-08-30T11:14:17;5.43;;;3.25;;
3081;SDS011;1551;51.046;7.010;2023-08-30T11:17:09;6.15;;;3.30;;
3081;SDS011;1551;51.046;7.010;2023-08-30T11:20:19;6.05;;;3.00;;
3081;SDS011;1551;51.046;7.010;2023-08-30T11:23:08;6.13;;;3.20;;
3081;SDS011;1551;51.046;7.010;2023-08-30T11:25:57;5.47;;;3.45;;
3081;SDS011;1551;51.046;7.010;2023-08-30T11:28:46;5.85;;;3.40;;
3081;SDS011;1551;51.046;7.010;2023-08-30T11:31:37;3.85;;;2.30;;
3081;SDS011;1551;51.046;7.010;2023-08-30T11:34:26;4.70;;;2.40;;
3081;SDS011;1551;51.046;7.010;2023-08-30T11:37:15;3.50;;;2.40;;
3081;SDS011;1551;51.046;7.010;2023-08-30T11:40:04;4.40;;;2.22;;
3081;SDS011;1551;51.046;7.010;2023-08-30T11:42:54;4.53;;;2.13;;
3081;SDS011;1551;51.046;7.010;2023-08-30T11:45:43;3.50;;;1.80;;
3081;SDS011;1551;51.046;7.010;2023-08-30T11:48:32;4.20;;;2.60;;
3081;SDS011;1551;51.046;7.010;2023-08-30T11:51:22;3.07;;;1.80;;
3081;SDS011;1551;51.046;7.010;2023-08-30T11:54:11;4.85;;;2.50;;
3081;SDS011;1551;51.046;7.010;2023-08-30T11:57:00;3.20;;;2.20;;
3081;SDS011;1551;51.046;7.010;2023-08-30T11:59:50;5.10;;;2.70;;
3081;SDS011;1551;51.046;7.010;2023-08-30T12:02:39;3.95;;;2.50;;
3081;SDS011;1551;51.046;7.010;2023-08-30T12:05:28;3.40;;;2.20;;
3081;SDS011;1551;51.046;7.010;2023-08-30T12:11:18;3.63;;;2.80;;
3081;SDS011;1551;51.046;7.010;2023-08-30T12:14:08;3.70;;;2.08;;
3081;SDS011;1551;51.046;7.010;2023-08-30T12:16:59;4.50;;;2.50;;
3081;SDS011;1551;51.046;7.010;2023-08-30T12:19:55;5.15;;;2.65;;
3081;SDS011;1551;51.046;7.010;2023-08-30T12:22:45;6.40;;;3.50;;
3081;SDS011;1551;51.046;7.010;2023-08-30T12:25:35;3.20;;;2.20;;
3081;SDS011;1551;51.046;7.010;2023-08-30T12:28:25;3.67;;;2.10;;
3081;SDS011;1551;51.046;7.010;2023-08-30T12:31:15;4.55;;;2.55;;
3081;SDS011;1551;51.046;7.010;2023-08-30T12:34:04;4.90;;;2.25;;
3081;SDS011;1551;51.046;7.010;2023-08-30T12:36:53;4.32;;;2.70;;
3081;SDS011;1551;51.046;7.010;2023-08-30T12:39:42;3.38;;;2.10;;
3081;SDS011;1551;51.046;7.010;2023-08-30T12:42:32;3.38;;;1.73;;
3081;SDS011;1551;51.046;7.010;2023-08-30T12:45:21;3.15;;;2.05;;
3081;SDS011;1551;51.046;7.010;2023-08-30T12:48:11;4.07;;;2.03;;
3081;SDS011;1551;51.046;7.010;2023-08-30T12:51:01;3.55;;;2.10;;
3081;SDS011;1551;51.046;7.010;2023-08-30T12:53:52;3.72;;;2.20;;
3081;SDS011;1551;51.046;7.010;2023-08-30T12:56:41;4.63;;;2.13;;
3081;SDS011;1551;51.046;7.010;2023-08-30T12:59:30;2.80;;;1.60;;
3081;SDS011;1551;51.046;7.010;2023-08-30T13:02:19;2.80;;;1.60;;
3081;SDS011;1551;51.046;7.010;2023-08-30T13:05:08;2.60;;;1.40;;
3081;SDS011;1551;51.046;7.010;2023-08-30T13:07:57;2.90;;;1.37;;
3081;SDS011;1551;51.046;7.010;2023-08-30T13:10:49;2.70;;;1.60;;
3081;SDS011;1551;51.046;7.010;2023-08-30T13:13:38;2.90;;;1.60;;
3081;SDS011;1551;51.046;7.010;2023-08-30T13:16:27;2.55;;;1.55;;
3081;SDS011;1551;51.046;7.010;2023-08-30T13:19:16;2.90;;;1.83;;
3081;SDS011;1551;51.046;7.010;2023-08-30T13:22:05;3.10;;;1.80;;
3081;SDS011;1551;51.046;7.010;2023-08-30T13:24:54;3.75;;;1.75;;
3081;SDS011;1551;51.046;7.010;2023-08-30T13:27:43;3.50;;;1.80;;
3081;SDS011;1551;51.046;7.010;2023-08-30T13:30:32;3.75;;;1.80;;
3081;SDS011;1551;51.046;7.010;2023-08-30T13:33:21;3.33;;;1.67;;
3081;SDS011;1551;51.046;7.010;2023-08-30T13:36:10;2.60;;;1.40;;
3081;SDS011;1551;51.046;7.010;2023-08-30T13:38:59;2.72;;;1.60;;
3081;SDS011;1551;51.046;7.010;2023-08-30T13:41:48;3.40;;;1.40;;
3081;SDS011;1551;51.046;7.010;2023-08-30T13:44:37;2.67;;;1.50;;
3081;SDS011;1551;51.046;7.010;2023-08-30T13:47:26;3.20;;;1.67;;
3081;SDS011;1551;51.046;7.010;2023-08-30T13:50:15;2.60;;;1.70;;
3081;SDS011;1551;51.046;7.010;2023-08-30T13:53:04;3.00;;;1.52;;
3081;SDS011;1551;51.046;7.010;2023-08-30T13:55:53;3.03;;;1.60;;
3081;SDS011;1551;51.046;7.010;2023-08-30T13:58:42;4.03;;;1.50;;
3081;SDS011;1551;51.046;7.010;2023-08-30T14:01:31;2.53;;;1.50;;
3081;SDS011;1551;51.046;7.010;2023-08-30T14:04:21;3.10;;;1.70;;
3081;SDS011;1551;51.046;7.010;2023-08-30T14:07:10;4.63;;;2.97;;
3081;SDS011;1551;51.046;7.010;2023-08-30T14:10:00;4.72;;;2.08;;
3081;SDS011;1551;51.046;7.010;2023-08-30T14:12:49;2.80;;;1.70;;
3081;SDS011;1551;51.046;7.010;2023-08-30T14:15:38;2.90;;;1.40;;
3081;SDS011;1551;51.046;7.010;2023-08-30T14:18:27;2.70;;;1.60;;
3081;SDS011;1551;51.046;7.010;2023-08-30T14:21:16;4.32;;;1.90;;
3081;SDS011;1551;51.046;7.010;2023-08-30T14:24:05;4.03;;;1.70;;
3081;SDS011;1551;51.046;7.010;2023-08-30T14:26:54;4.15;;;1.80;;
3081;SDS011;1551;51.046;7.010;2023-08-30T14:29:43;3.38;;;1.80;;
3081;SDS011;1551;51.046;7.010;2023-08-30T14:32:32;2.95;;;1.95;;
3081;SDS011;1551;51.046;7.010;2023-08-30T14:35:21;3.83;;;2.25;;
3081;SDS011;1551;51.046;7.010;2023-08-30T14:38:12;3.60;;;2.38;;
3081;SDS011;1551;51.046;7.010;2023-08-30T14:41:01;5.00;;;2.50;;
3081;SDS011;1551;51.046;7.010;2023-08-30T14:43:50;3.30;;;2.20;;
3081;SDS011;1551;51.046;7.010;2023-08-30T14:46:39;3.43;;;2.10;;
3081;SDS011;1551;51.046;7.010;2023-08-30T14:49:29;4.97;;;2.83;;
3081;SDS011;1551;51.046;7.010;2023-08-30T14:52:19;3.80;;;2.40;;
3081;SDS011;1551;51.046;7.010;2023-08-30T14:55:08;3.88;;;2.40;;
3081;SDS011;1551;51.046;7.010;2023-08-30T14:57:57;3.47;;;2.20;;
3081;SDS011;1551;51.046;7.010;2023-08-30T15:00:49;4.93;;;2.80;;
3081;SDS011;1551;51.046;7.010;2023-08-30T15:03:39;5.07;;;2.40;;
3081;SDS011;1551;51.046;7.010;2023-08-30T15:06:28;3.72;;;2.25;;
3081;SDS011;1551;51.046;7.010;2023-08-30T15:09:17;6.50;;;3.47;;
3081;SDS011;1551;51.046;7.010;2023-08-30T15:12:06;5.82;;;2.83;;
3081;SDS011;1551;51.046;7.010;2023-08-30T15:14:55;5.72;;;3.28;;
3081;SDS011;1551;51.046;7.010;2023-08-30T15:17:44;4.88;;;3.20;;
3081;SDS011;1551;51.046;7.010;2023-08-30T15:20:33;4.63;;;2.80;;
3081;SDS011;1551;51.046;7.010;2023-08-30T15:23:22;4.38;;;2.38;;
3081;SDS011;1551;51.046;7.010;2023-08-30T15:26:11;3.73;;;2.57;;
3081;SDS011;1551;51.046;7.010;2023-08-30T15:29:04;4.60;;;2.70;;
3081;SDS011;1551;51.046;7.010;2023-08-30T15:31:53;4.13;;;3.20;;
3081;SDS011;1551;51.046;7.010;2023-08-30T15:34:42;4.10;;;2.60;;
3081;SDS011;1551;51.046;7.010;2023-08-30T15:37:32;4.00;;;2.40;;
3081;SDS011;1551;51.046;7.010;2023-08-30T15:40:21;4.60;;;3.30;;
3081;SDS011;1551;51.046;7.010;2023-08-30T15:43:10;4.30;;;2.60;;
3081;SDS011;1551;51.046;7.010;2023-08-30T15:45:59;6.68;;;2.70;;
3081;SDS011;1551;51.046;7.010;2023-08-30T15:48:48;4.45;;;3.15;;
3081;SDS011;1551;51.046;7.010;2023-08-30T15:51:37;4.13;;;3.20;;
3081;SDS011;1551;51.046;7.010;2023-08-30T15:54:26;4.23;;;2.90;;
3081;SDS011;1551;51.046;7.010;2023-08-30T15:57:14;5.23;;;2.90;;
3081;SDS011;1551;51.046;7.010;2023-08-30T16:00:04;4.47;;;2.90;;
3081;SDS011;1551;51.046;7.010;2023-08-30T16:02:55;4.88;;;3.10;;
3081;SDS011;1551;51.046;7.010;2023-08-30T16:05:46;5.05;;;3.20;;
3081;SDS011;1551;51.046;7.010;2023-08-30T16:08:35;5.68;;;3.22;;
3081;SDS011;1551;51.046;7.010;2023-08-30T16:11:24;4.53;;;3.20;;
3081;SDS011;1551;51.046;7.010;2023-08-30T16:14:13;3.97;;;2.92;;
3081;SDS011;1551;51.046;7.010;2023-08-30T16:17:02;4.90;;;2.70;;
3081;SDS011;1551;51.046;7.010;2023-08-30T16:19:51;4.05;;;2.83;;
3081;SDS011;1551;51.046;7.010;2023-08-30T16:22:40;3.92;;;2.92;;
3081;SDS011;1551;51.046;7.010;2023-08-30T16:25:29;7.47;;;3.20;;
3081;SDS011;1551;51.046;7.010;2023-08-30T16:28:18;5.20;;;3.90;;
3081;SDS011;1551;51.046;7.010;2023-08-30T16:31:06;6.13;;;3.50;;
3081;SDS011;1551;51.046;7.010;2023-08-30T16:33:56;6.55;;;5.10;;
3081;SDS011;1551;51.046;7.010;2023-08-30T16:36:45;5.50;;;3.47;;
3081;SDS011;1551;51.046;7.010;2023-08-30T16:39:36;6.00;;;3.70;;
3081;SDS011;1551;51.046;7.010;2023-08-30T16:42:27;7.03;;;5.25;;
3081;SDS011;1551;51.046;7.010;2023-08-30T16:45:16;5.53;;;3.67;;
3081;SDS011;1551;51.046;7.010;2023-08-30T16:48:05;6.60;;;3.50;;
3081;SDS011;1551;51.046;7.010;2023-08-30T16:50:55;4.93;;;3.63;;
3081;SDS011;1551;51.046;7.010;2023-08-30T16:53:44;4.90;;;3.00;;
3081;SDS011;1551;51.046;7.010;2023-08-30T16:56:33;5.85;;;3.70;;
3081;SDS011;1551;51.046;7.010;2023-08-30T16:59:22;3.78;;;3.15;;
3081;SDS011;1551;51.046;7.010;2023-08-30T17:02:11;5.65;;;3.33;;
3081;SDS011;1551;51.046;7.010;2023-08-30T17:05:00;4.95;;;3.10;;
3081;SDS011;1551;51.046;7.010;2023-08-30T17:07:52;5.43;;;2.90;;
3081;SDS011;1551;51.046;7.010;2023-08-30T17:10:42;5.45;;;3.40;;
3081;SDS011;1551;51.046;7.010;2023-08-30T17:13:32;7.20;;;3.20;;
3081;SDS011;1551;51.046;7.010;2023-08-30T17:16:22;5.05;;;3.25;;
3081;SDS011;1551;51.046;7.010;2023-08-30T17:19:12;6.25;;;3.13;;
3081;SDS011;1551;51.046;7.010;2023-08-30T17:22:01;6.03;;;2.90;;
3081;SDS011;1551;51.046;7.010;2023-08-30T17:24:51;5.88;;;3.40;;
3081;SDS011;1551;51.046;7.010;2023-08-30T17:27:40;5.30;;;3.40;;
3081;SDS011;1551;51.046;7.010;2023-08-30T17:30:31;6.03;;;3.40;;
3081;SDS011;1551;51.046;7.010;2023-08-30T17:33:21;5.40;;;3.40;;
3081;SDS011;1551;51.046;7.010;2023-08-30T17:36:10;6.03;;;3.30;;
3081;SDS011;1551;51.046;7.010;2023-08-30T17:38:59;7.00;;;3.65;;
3081;SDS011;1551;51.046;7.010;2023-08-30T17:41:48;5.77;;;3.10;;
3081;SDS011;1551;51.046;7.010;2023-08-30T17:44:37;4.63;;;3.20;;
3081;SDS011;1551;51.046;7.010;2023-08-30T17:47:26;7.60;;;3.60;;
3081;SDS011;1551;51.046;7.010;2023-08-30T17:50:15;7.30;;;3.40;;